createdAt,value
2017-08-14T00:00:56.996Z,89.35
2017-08-14T00:03:22.895Z,89.73
2017-08-14T00:05:48.661Z,89.56
2017-08-14T00:08:14.407Z,89.96
2017-08-14T00:10:40.346Z,90.12
2017-08-14T00:13:06.117Z,90.93
2017-08-14T00:15:31.939Z,91.57
2017-08-14T00:17:57.737Z,90.84
2017-08-14T00:20:23.498Z,90.40
2017-08-14T00:22:49.379Z,89.64
2017-08-14T00:25:15.146Z,89.48
2017-08-14T00:27:40.953Z,89.75
2017-08-14T00:30:06.797Z,91.62
2017-08-14T00:32:32.653Z,91.24
2017-08-14T00:34:58.423Z,91.17
2017-08-14T00:37:24.202Z,91.64
2017-08-14T00:39:50.061Z,92.07
2017-08-14T00:42:15.887Z,90.96
2017-08-14T00:44:41.687Z,90.48
2017-08-14T00:47:08.084Z,90.50
2017-08-14T00:49:33.959Z,90.47
2017-08-14T00:51:59.783Z,90.36
2017-08-14T00:54:25.594Z,90.57
2017-08-14T00:56:51.401Z,90.44
2017-08-14T00:59:17.192Z,90.55
2017-08-14T01:01:49.943Z,90.60
2017-08-14T01:04:15.679Z,91.06
2017-08-14T01:06:41.522Z,91.19
2017-08-14T01:09:07.269Z,91.41
2017-08-14T01:11:33.059Z,90.69
2017-08-14T01:13:58.939Z,91.16
2017-08-14T01:16:24.740Z,90.91
2017-08-14T01:18:50.515Z,90.83
2017-08-14T01:21:16.413Z,90.77
2017-08-14T01:23:42.203Z,90.87
2017-08-14T01:26:07.981Z,90.79
2017-08-14T01:28:33.844Z,90.66
2017-08-14T01:30:59.608Z,90.32
2017-08-14T01:33:25.425Z,91.30
2017-08-14T01:35:51.266Z,91.57
2017-08-14T01:38:17.174Z,91.77
2017-08-14T01:40:42.909Z,91.29
2017-08-14T01:43:08.713Z,91.17
2017-08-14T01:45:34.548Z,91.10
2017-08-14T01:48:00.391Z,91.02
2017-08-14T01:50:26.243Z,91.04
2017-08-14T01:52:51.986Z,90.61
2017-08-14T01:55:17.800Z,90.54
2017-08-14T01:57:43.627Z,90.81
2017-08-14T02:00:09.407Z,91.80
2017-08-14T02:02:35.302Z,91.71
2017-08-14T02:05:01.148Z,91.33
2017-08-14T02:07:26.928Z,90.81
2017-08-14T02:09:52.690Z,90.75
2017-08-14T02:12:18.533Z,90.86
2017-08-14T02:14:44.307Z,91.45
2017-08-14T02:17:10.245Z,91.16
2017-08-14T02:19:36.007Z,91.00
2017-08-14T02:22:01.839Z,90.79
2017-08-14T02:24:27.635Z,90.39
2017-08-14T02:26:53.460Z,91.82
2017-08-14T02:29:19.245Z,92.42
2017-08-14T02:31:45.157Z,92.83
2017-08-14T02:34:10.889Z,93.38
2017-08-14T02:36:36.741Z,92.48
2017-08-14T02:39:02.565Z,91.82
2017-08-14T02:41:28.421Z,91.37
2017-08-14T02:43:54.176Z,91.30
2017-08-14T02:46:19.994Z,91.08
2017-08-14T02:48:46.194Z,90.81
2017-08-14T02:51:12.026Z,90.56
2017-08-14T02:53:37.903Z,90.59
2017-08-14T02:56:03.689Z,90.64
2017-08-14T02:58:29.467Z,90.82
2017-08-14T03:00:55.318Z,91.30
2017-08-14T03:03:21.133Z,91.28
2017-08-14T03:05:46.929Z,91.46
2017-08-14T03:08:12.786Z,91.59
2017-08-14T03:10:38.558Z,91.23
2017-08-14T03:13:04.424Z,91.19
2017-08-14T03:15:30.220Z,91.44
2017-08-14T03:17:56.026Z,91.47
2017-08-14T03:20:21.870Z,91.17
2017-08-14T03:22:47.729Z,91.03
2017-08-14T03:25:13.490Z,91.15
2017-08-14T03:27:39.323Z,90.80
2017-08-14T03:30:05.154Z,91.04
2017-08-14T03:32:31.018Z,91.22
2017-08-14T03:34:56.780Z,91.07
2017-08-14T03:37:22.609Z,91.08
2017-08-14T03:39:48.400Z,90.49
2017-08-14T03:42:14.242Z,90.80
2017-08-14T03:44:40.018Z,90.81
2017-08-14T03:47:06.552Z,90.86
2017-08-14T03:49:32.344Z,90.69
2017-08-14T03:51:58.077Z,91.00
2017-08-14T03:54:23.961Z,90.91
2017-08-14T03:56:49.714Z,91.42
2017-08-14T03:59:15.562Z,91.50
2017-08-14T04:01:41.500Z,91.05
2017-08-14T04:04:07.201Z,90.77
2017-08-14T04:06:32.985Z,90.72
2017-08-14T04:08:58.836Z,90.72
2017-08-14T04:11:24.624Z,90.74
2017-08-14T04:13:50.427Z,90.63
2017-08-14T04:16:16.363Z,90.35
2017-08-14T04:18:42.189Z,90.30
2017-08-14T04:21:07.956Z,90.58
2017-08-14T04:23:33.708Z,90.97
2017-08-14T04:25:59.573Z,91.05
2017-08-14T04:28:25.353Z,90.87
2017-08-14T04:30:51.212Z,90.62
2017-08-14T04:33:17.052Z,90.55
2017-08-14T04:35:42.791Z,91.13
2017-08-14T04:38:08.742Z,91.20
2017-08-14T04:40:34.447Z,91.42
2017-08-14T04:43:00.300Z,91.56
2017-08-14T04:45:26.093Z,91.64
2017-08-14T04:47:51.905Z,92.64
2017-08-14T04:50:17.831Z,92.31
2017-08-14T04:52:43.632Z,92.47
2017-08-14T04:55:09.366Z,91.02
2017-08-14T04:57:35.184Z,90.46
2017-08-14T05:00:01.015Z,89.97
2017-08-14T05:02:26.888Z,90.71
2017-08-14T05:04:52.700Z,90.39
2017-08-14T05:07:18.562Z,90.66
2017-08-14T05:09:44.271Z,90.73
2017-08-14T05:12:10.089Z,90.73
2017-08-14T05:14:35.919Z,90.68
2017-08-14T05:17:01.728Z,89.75
2017-08-14T05:19:27.571Z,89.87
2017-08-14T05:21:53.420Z,89.69
2017-08-14T05:24:19.168Z,89.41
2017-08-14T05:26:45.113Z,89.08
2017-08-14T05:29:10.799Z,89.63
2017-08-14T05:31:36.532Z,90.25
2017-08-14T05:34:02.250Z,89.47
2017-08-14T05:36:28.060Z,89.03
2017-08-14T05:38:53.907Z,89.07
2017-08-14T05:41:26.531Z,88.58
2017-08-14T05:43:52.345Z,87.52
2017-08-14T05:46:18.144Z,86.42
2017-08-14T05:48:43.903Z,85.20
2017-08-14T05:51:09.804Z,84.87
2017-08-14T05:53:35.555Z,84.35
2017-08-14T05:56:01.373Z,83.97
2017-08-14T05:58:27.217Z,83.71
2017-08-14T06:00:53.044Z,83.52
2017-08-14T06:03:18.900Z,83.54
2017-08-14T06:05:44.747Z,83.85
2017-08-14T06:08:10.925Z,84.18
2017-08-14T06:10:36.752Z,83.21
2017-08-14T06:13:02.521Z,83.25
2017-08-14T06:15:28.421Z,83.67
2017-08-14T06:17:54.203Z,84.38
2017-08-14T06:20:19.991Z,84.07
2017-08-14T06:22:45.801Z,83.17
2017-08-14T06:25:11.710Z,83.06
2017-08-14T06:27:37.491Z,82.43
2017-08-14T06:30:03.316Z,81.79
2017-08-14T06:32:29.132Z,81.40
2017-08-14T06:34:54.954Z,80.95
2017-08-14T06:37:20.775Z,79.69
2017-08-14T06:39:46.612Z,78.60
2017-08-14T06:42:12.414Z,77.78
2017-08-14T06:44:38.140Z,76.11
2017-08-14T06:47:05.063Z,75.70
2017-08-14T06:49:30.831Z,76.61
2017-08-14T06:51:56.656Z,75.35
2017-08-14T06:54:22.503Z,74.07
2017-08-14T06:56:48.315Z,73.55
2017-08-14T06:59:14.167Z,72.48
2017-08-14T07:01:39.964Z,72.20
2017-08-14T07:04:05.747Z,73.36
2017-08-14T07:06:31.608Z,71.33
2017-08-14T07:08:57.429Z,71.06
2017-08-14T07:11:23.260Z,69.99
2017-08-14T07:13:49.067Z,69.35
2017-08-14T07:16:14.909Z,68.57
2017-08-14T07:18:40.638Z,68.16
2017-08-14T07:21:06.564Z,69.61
2017-08-14T07:23:32.327Z,67.08
2017-08-14T07:25:58.207Z,65.23
2017-08-14T07:28:23.965Z,63.74
2017-08-14T07:30:49.720Z,64.50
2017-08-14T07:33:15.583Z,63.43
2017-08-14T07:35:41.360Z,61.53
2017-08-14T07:38:07.177Z,60.09
2017-08-14T07:40:33.117Z,59.48
2017-08-14T07:42:58.888Z,60.43
2017-08-14T07:45:24.635Z,59.65
2017-08-14T07:47:50.496Z,61.07
2017-08-14T07:50:16.332Z,62.42
2017-08-14T07:52:42.086Z,61.73
2017-08-14T07:55:07.931Z,61.34
2017-08-14T07:57:33.715Z,61.85
2017-08-14T07:59:59.624Z,62.01
2017-08-14T08:02:25.448Z,62.97
2017-08-14T08:04:51.190Z,61.96
2017-08-14T08:07:17.033Z,61.74
2017-08-14T08:09:42.860Z,60.94
2017-08-14T08:12:08.664Z,61.36
2017-08-14T08:14:34.458Z,59.50
2017-08-14T08:17:00.388Z,60.40
2017-08-14T08:19:26.193Z,59.68
2017-08-14T08:21:51.903Z,60.22
2017-08-14T08:24:17.801Z,61.15
2017-08-14T08:26:43.565Z,60.33
2017-08-14T08:29:09.398Z,60.17
2017-08-14T08:31:35.184Z,60.20
2017-08-14T08:34:01.106Z,57.17
2017-08-14T08:36:26.851Z,59.34
2017-08-14T08:38:52.757Z,58.51
2017-08-14T08:41:18.573Z,57.83
2017-08-14T08:43:44.351Z,58.24
2017-08-14T08:46:10.166Z,57.78
2017-08-14T08:48:35.955Z,57.12
2017-08-14T08:51:01.839Z,55.99
2017-08-14T08:53:27.613Z,56.99
2017-08-14T08:55:53.466Z,56.68
2017-08-14T08:58:19.284Z,57.13
2017-08-14T09:00:45.142Z,55.43
2017-08-14T09:03:10.914Z,53.59
2017-08-14T09:05:36.648Z,54.06
2017-08-14T09:08:02.532Z,52.33
2017-08-14T09:10:28.354Z,52.88
2017-08-14T09:12:54.084Z,51.79
2017-08-14T09:15:20.001Z,50.30
2017-08-14T09:17:45.875Z,54.29
2017-08-14T09:20:11.640Z,52.91
2017-08-14T09:22:37.397Z,51.81
2017-08-14T09:25:03.216Z,51.41
2017-08-14T09:27:29.083Z,50.67
2017-08-14T09:29:54.842Z,51.26
2017-08-14T09:32:20.719Z,51.36
2017-08-14T09:34:46.592Z,50.57
2017-08-14T09:37:12.371Z,49.62
2017-08-14T09:39:38.108Z,49.11
2017-08-14T09:42:03.961Z,47.53
2017-08-14T09:44:29.745Z,48.96
2017-08-14T09:46:55.620Z,48.83
2017-08-14T09:49:21.469Z,47.34
2017-08-14T09:51:47.204Z,49.23
2017-08-14T09:54:13.127Z,48.18
2017-08-14T09:56:38.920Z,50.67
2017-08-14T09:59:04.694Z,50.24
2017-08-14T10:01:30.507Z,48.25
2017-08-14T10:03:56.313Z,49.53
2017-08-14T10:06:22.184Z,50.62
2017-08-14T10:08:48.999Z,50.65
2017-08-14T10:11:15.444Z,48.41
2017-08-14T10:13:41.213Z,48.57
2017-08-14T10:16:07.065Z,46.92
2017-08-14T10:18:32.915Z,47.88
2017-08-14T10:20:58.702Z,46.14
2017-08-14T10:23:24.508Z,45.86
2017-08-14T10:25:50.419Z,44.64
2017-08-14T10:28:16.144Z,41.65
2017-08-14T10:30:42.035Z,43.45
2017-08-14T10:33:07.762Z,41.75
2017-08-14T10:35:33.622Z,45.18
2017-08-14T10:37:59.530Z,43.90
2017-08-14T10:40:25.258Z,48.66
2017-08-14T10:42:51.114Z,47.41
2017-08-14T10:45:16.877Z,44.13
2017-08-14T10:47:42.790Z,40.83
2017-08-14T10:50:08.524Z,42.37
2017-08-14T10:52:34.320Z,45.18
2017-08-14T10:55:00.147Z,42.49
2017-08-14T10:57:25.988Z,43.35
2017-08-14T10:59:51.778Z,44.40
2017-08-14T11:02:17.652Z,45.36
2017-08-14T11:04:43.438Z,43.09
2017-08-14T11:07:09.218Z,43.12
2017-08-14T11:09:35.050Z,41.91
2017-08-14T11:12:00.911Z,43.77
2017-08-14T11:14:26.695Z,45.62
2017-08-14T11:16:52.523Z,45.91
2017-08-14T11:19:18.335Z,43.45
2017-08-14T11:21:44.165Z,40.18
2017-08-14T11:24:09.954Z,38.22
2017-08-14T11:26:35.810Z,42.46
2017-08-14T11:29:01.688Z,43.33
2017-08-14T11:31:27.441Z,41.07
2017-08-14T11:33:53.257Z,40.95
2017-08-14T11:36:19.054Z,41.17
2017-08-14T11:38:44.902Z,43.17
2017-08-14T11:41:10.675Z,42.08
2017-08-14T11:43:36.536Z,42.15
2017-08-14T11:46:02.337Z,39.96
2017-08-14T11:48:28.234Z,39.94
2017-08-14T11:50:53.975Z,40.80
2017-08-14T11:53:19.816Z,38.41
2017-08-14T11:55:45.598Z,37.28
2017-08-14T11:58:11.450Z,38.21
2017-08-14T12:00:37.322Z,39.03
2017-08-14T12:03:03.096Z,40.47
2017-08-14T12:05:28.920Z,39.38
2017-08-14T12:07:54.682Z,37.16
2017-08-14T12:10:21.134Z,35.72
2017-08-14T12:12:46.963Z,37.54
2017-08-14T12:15:12.791Z,35.03
2017-08-14T12:17:38.663Z,35.21
2017-08-14T12:20:04.386Z,35.68
2017-08-14T12:22:30.241Z,35.61
2017-08-14T12:24:56.064Z,37.68
2017-08-14T12:27:21.822Z,37.85
2017-08-14T12:29:47.671Z,39.00
2017-08-14T12:32:13.582Z,37.14
2017-08-14T12:34:39.329Z,35.47
2017-08-14T12:37:05.122Z,34.58
2017-08-14T12:39:31.000Z,33.40
2017-08-14T12:41:56.845Z,34.24
2017-08-14T12:44:22.724Z,36.91
2017-08-14T12:46:48.492Z,37.29
2017-08-14T12:49:14.211Z,36.73
2017-08-14T12:51:40.149Z,38.91
2017-08-14T12:54:05.880Z,41.25
2017-08-14T12:56:31.793Z,40.38
2017-08-14T12:58:57.513Z,40.02
2017-08-14T13:01:23.387Z,37.29
2017-08-14T13:03:49.135Z,38.45
2017-08-14T13:06:14.971Z,38.78
2017-08-14T13:08:40.796Z,39.50
2017-08-14T13:11:06.580Z,42.28
2017-08-14T13:13:32.438Z,38.16
2017-08-14T13:15:58.317Z,40.55
2017-08-14T13:18:24.044Z,37.53
2017-08-14T13:20:49.879Z,37.10
2017-08-14T13:23:15.697Z,34.31
2017-08-14T13:25:41.504Z,37.19
2017-08-14T13:28:07.352Z,39.84
2017-08-14T13:30:33.210Z,39.95
2017-08-14T13:32:59.029Z,39.61
2017-08-14T13:35:24.800Z,38.06
2017-08-14T13:37:50.681Z,36.57
2017-08-14T13:40:16.519Z,34.23
2017-08-14T13:42:42.263Z,36.18
2017-08-14T13:45:08.111Z,37.67
2017-08-14T13:47:33.891Z,35.70
2017-08-14T13:49:59.673Z,36.98
2017-08-14T13:52:25.525Z,37.29
2017-08-14T13:54:51.330Z,34.87
2017-08-14T13:57:17.180Z,32.24
2017-08-14T13:59:42.953Z,33.32
2017-08-14T14:02:08.778Z,32.37
2017-08-14T14:04:34.706Z,32.05
2017-08-14T14:07:00.421Z,33.98
2017-08-14T14:09:26.277Z,32.05
2017-08-14T14:11:52.108Z,30.97
2017-08-14T14:14:17.859Z,32.07
2017-08-14T14:16:43.695Z,35.54
2017-08-14T14:19:09.533Z,34.78
2017-08-14T14:21:35.309Z,33.37
2017-08-14T14:24:01.138Z,35.54
2017-08-14T14:26:26.990Z,32.94
2017-08-14T14:28:52.839Z,31.58
2017-08-14T14:31:18.619Z,33.15
2017-08-14T14:33:44.466Z,35.58
2017-08-14T14:36:10.240Z,34.59
2017-08-14T14:38:36.057Z,34.35
2017-08-14T14:41:01.919Z,36.51
2017-08-14T14:43:27.703Z,35.08
2017-08-14T14:45:53.630Z,36.25
2017-08-14T14:48:19.377Z,33.47
2017-08-14T14:50:45.152Z,31.21
2017-08-14T14:53:10.983Z,34.41
2017-08-14T14:55:36.912Z,35.86
2017-08-14T14:58:02.663Z,34.56
2017-08-14T15:00:28.426Z,36.20
2017-08-14T15:02:54.334Z,34.76
2017-08-14T15:05:20.083Z,31.79
2017-08-14T15:07:45.913Z,34.33
2017-08-14T15:10:11.783Z,34.73
2017-08-14T15:12:37.527Z,36.54
2017-08-14T15:15:03.367Z,37.39
2017-08-14T15:17:29.224Z,38.97
2017-08-14T15:19:54.989Z,39.25
2017-08-14T15:22:20.845Z,39.42
2017-08-14T15:24:46.718Z,38.21
2017-08-14T15:27:12.470Z,39.46
2017-08-14T15:32:36.099Z,33.39
2017-08-14T15:35:01.856Z,32.57
2017-08-14T15:37:27.663Z,37.37
2017-08-14T15:39:53.482Z,39.40
2017-08-14T15:42:19.304Z,36.00
2017-08-14T15:44:45.150Z,36.80
2017-08-14T15:47:11.821Z,35.29
2017-08-14T15:49:37.642Z,38.93
2017-08-14T15:52:03.376Z,38.85
2017-08-14T15:54:29.153Z,40.59
2017-08-14T15:56:54.912Z,40.22
2017-08-14T15:59:20.671Z,40.94
2017-08-14T16:01:46.447Z,42.43
2017-08-14T16:04:12.184Z,44.97
2017-08-14T16:06:37.946Z,41.59
2017-08-14T16:09:03.741Z,41.64
2017-08-14T16:11:29.488Z,41.30
2017-08-14T16:13:55.274Z,41.28
2017-08-14T16:16:21.046Z,41.63
2017-08-14T16:18:46.835Z,41.37
2017-08-14T16:21:12.611Z,44.21
2017-08-14T16:23:38.359Z,44.57
2017-08-14T16:26:04.142Z,44.59
2017-08-14T16:28:29.901Z,45.19
2017-08-14T16:30:55.650Z,44.15
2017-08-14T16:33:21.422Z,42.76
2017-08-14T16:35:47.279Z,45.09
2017-08-14T16:38:13.039Z,45.53
2017-08-14T16:40:38.829Z,47.09
2017-08-14T16:43:04.622Z,46.13
2017-08-14T16:45:30.388Z,45.13
2017-08-14T16:47:56.214Z,47.53
2017-08-14T16:50:22.070Z,47.33
2017-08-14T16:52:47.800Z,48.38
2017-08-14T16:55:13.684Z,50.62
2017-08-14T16:57:39.423Z,51.43
2017-08-14T17:00:05.156Z,51.84
2017-08-14T17:02:30.921Z,52.17
2017-08-14T17:07:47.193Z,52.86
2017-08-14T17:10:12.925Z,53.36
2017-08-14T17:12:38.644Z,52.27
2017-08-14T17:15:04.384Z,51.96
2017-08-14T17:17:30.101Z,52.93
2017-08-14T17:19:55.922Z,54.02
2017-08-14T17:22:21.654Z,54.72
2017-08-14T17:24:47.434Z,55.16
2017-08-14T17:27:13.186Z,54.84
2017-08-14T17:29:38.909Z,55.49
2017-08-14T17:32:04.760Z,55.00
2017-08-14T17:34:30.504Z,54.49
2017-08-14T17:36:56.305Z,54.83
2017-08-14T17:39:22.035Z,54.63
2017-08-14T17:41:47.806Z,55.28
2017-08-14T17:44:13.533Z,55.02
2017-08-14T17:46:39.283Z,55.69
2017-08-14T17:49:05.020Z,55.19
2017-08-14T17:51:30.835Z,55.13
2017-08-14T17:56:24.901Z,57.08
2017-08-14T17:58:50.646Z,58.01
2017-08-14T18:01:16.389Z,58.13
2017-08-14T18:03:42.109Z,58.10
2017-08-14T18:06:07.893Z,58.18
2017-08-14T18:08:33.657Z,58.09
2017-08-14T18:10:59.372Z,57.92
2017-08-14T18:13:25.228Z,56.94
2017-08-14T18:15:50.940Z,58.65
2017-08-14T18:18:16.677Z,59.38
2017-08-14T18:20:42.458Z,60.01
2017-08-14T18:23:08.302Z,61.05
2017-08-14T18:25:34.044Z,60.78
2017-08-14T18:27:59.931Z,60.29
2017-08-14T18:30:25.673Z,60.82
2017-08-14T18:32:51.424Z,62.54
2017-08-14T18:35:17.212Z,63.55
2017-08-14T18:37:42.959Z,64.10
2017-08-14T18:40:08.724Z,64.76
2017-08-14T18:42:34.452Z,63.44
2017-08-14T18:45:00.195Z,65.21
2017-08-14T18:47:25.975Z,64.91
2017-08-14T18:49:51.700Z,64.11
2017-08-14T18:52:17.449Z,64.95
2017-08-14T18:54:43.214Z,65.79
2017-08-14T18:57:08.943Z,66.41
2017-08-14T18:59:34.718Z,66.35
2017-08-14T19:02:00.464Z,66.60
2017-08-14T19:04:26.211Z,67.43
2017-08-14T19:06:51.976Z,68.43
2017-08-14T19:09:19.464Z,68.57
2017-08-14T19:11:43.500Z,68.93
2017-08-14T19:14:09.279Z,70.40
2017-08-14T19:16:35.017Z,71.07
2017-08-14T19:19:00.789Z,70.53
2017-08-14T19:21:26.554Z,70.90
2017-08-14T19:23:52.301Z,71.00
2017-08-14T19:26:18.138Z,71.78
2017-08-14T19:28:43.901Z,72.00
2017-08-14T19:31:09.657Z,72.17
2017-08-14T19:33:35.432Z,71.57
2017-08-14T19:36:01.218Z,71.68
2017-08-14T19:38:27.002Z,72.11
2017-08-14T19:40:52.749Z,72.64
2017-08-14T19:43:18.527Z,73.11
2017-08-14T19:45:44.246Z,74.17
2017-08-14T19:48:10.015Z,74.54
2017-08-14T19:50:35.745Z,74.11
2017-08-14T19:53:01.476Z,75.17
2017-08-14T19:55:27.277Z,74.75
2017-08-14T19:57:53.004Z,74.12
2017-08-14T20:00:18.739Z,74.22
2017-08-14T20:02:44.626Z,75.25
2017-08-14T20:05:10.382Z,75.44
2017-08-14T20:07:36.212Z,75.53
2017-08-14T20:10:01.963Z,75.41
2017-08-14T20:12:27.739Z,75.26
2017-08-14T20:14:53.477Z,74.94
2017-08-14T20:17:19.235Z,75.78
2017-08-14T20:19:44.969Z,76.20
2017-08-14T20:22:10.769Z,76.97
2017-08-14T20:24:36.517Z,76.72
2017-08-14T20:27:02.297Z,76.91
2017-08-14T20:29:28.038Z,76.27
2017-08-14T20:31:53.854Z,76.31
2017-08-14T20:34:19.617Z,76.97
2017-08-14T20:36:45.429Z,77.81
2017-08-14T20:39:11.164Z,78.42
2017-08-14T20:41:36.987Z,78.43
2017-08-14T20:44:02.720Z,78.70
2017-08-14T20:46:28.490Z,79.11
2017-08-14T20:48:54.272Z,80.08
2017-08-14T20:51:20.026Z,80.01
2017-08-14T20:53:45.786Z,79.07
2017-08-14T20:56:11.589Z,80.18
2017-08-14T20:58:37.431Z,79.51
2017-08-14T21:01:03.305Z,79.73
2017-08-14T21:03:29.085Z,79.93
2017-08-14T21:05:54.836Z,79.48
2017-08-14T21:08:20.551Z,78.27
2017-08-14T21:10:46.323Z,80.23
2017-08-14T21:13:12.249Z,79.97
2017-08-14T21:15:38.067Z,79.94
2017-08-14T21:18:03.840Z,79.57
2017-08-14T21:20:29.604Z,81.08
2017-08-14T21:22:55.348Z,80.11
2017-08-14T21:25:21.103Z,81.19
2017-08-14T21:27:46.840Z,80.46
2017-08-14T21:30:12.629Z,80.04
2017-08-14T21:32:38.382Z,80.32
2017-08-14T21:35:04.196Z,80.77
2017-08-14T21:37:30.027Z,80.84
2017-08-14T21:39:55.745Z,81.79
2017-08-14T21:42:21.518Z,81.11
2017-08-14T21:44:47.268Z,81.57
2017-08-14T21:47:13.747Z,81.98
2017-08-14T21:49:39.495Z,81.48
2017-08-14T21:52:05.217Z,82.83
2017-08-14T21:54:30.999Z,82.79
2017-08-14T21:56:56.772Z,82.48
2017-08-14T21:59:22.551Z,82.02
2017-08-14T22:01:49.331Z,82.36
2017-08-14T22:04:15.059Z,82.19
2017-08-14T22:06:40.867Z,82.72
2017-08-14T22:09:06.590Z,82.34
2017-08-14T22:11:32.361Z,83.15
2017-08-14T22:13:58.116Z,83.74
2017-08-14T22:16:23.843Z,83.89
2017-08-14T22:18:49.608Z,82.98
2017-08-14T22:21:15.328Z,83.25
2017-08-14T22:23:41.111Z,83.06
2017-08-14T22:26:06.880Z,82.94
2017-08-14T22:28:32.645Z,83.04
2017-08-14T22:30:58.425Z,82.91
2017-08-14T22:33:24.228Z,82.88
2017-08-14T22:35:49.995Z,82.32
2017-08-14T22:38:15.745Z,82.83
2017-08-14T22:40:41.592Z,82.26
2017-08-14T22:43:07.376Z,83.09
2017-08-14T22:45:33.162Z,82.89
2017-08-14T22:47:58.989Z,82.85
2017-08-14T22:50:24.721Z,82.96
2017-08-14T22:52:50.468Z,83.62
2017-08-14T22:55:16.224Z,83.36
2017-08-14T22:57:42.008Z,83.37
2017-08-14T23:00:07.756Z,83.08
2017-08-14T23:02:33.589Z,83.92
2017-08-14T23:04:59.377Z,83.52
2017-08-14T23:07:25.144Z,83.69
2017-08-14T23:09:50.888Z,83.43
2017-08-14T23:12:16.704Z,83.62
2017-08-14T23:14:42.442Z,83.92
2017-08-14T23:17:08.205Z,84.44
2017-08-14T23:19:33.987Z,83.73
2017-08-14T23:21:59.759Z,84.30
2017-08-14T23:24:25.575Z,84.89
2017-08-14T23:26:51.322Z,85.04
2017-08-14T23:29:17.075Z,84.69
2017-08-14T23:31:42.854Z,84.91
2017-08-14T23:34:08.652Z,84.81
2017-08-14T23:36:34.452Z,85.15
2017-08-14T23:39:00.189Z,84.70
2017-08-14T23:41:26.427Z,84.82
2017-08-14T23:43:52.160Z,85.41
2017-08-14T23:46:17.914Z,85.28
2017-08-14T23:48:43.662Z,84.34
2017-08-14T23:51:09.453Z,84.63
2017-08-14T23:53:35.190Z,84.37
2017-08-14T23:56:00.946Z,84.27
2017-08-14T23:58:26.744Z,84.42
